Terminal Aerodrome Forecast
Issued by NWS Goodland, KS

Home | Current Version | Previous Version | Text Only | Print | Product List | Glossary On
Versions: 1 2 3 4 5 6 7 8 9 10 11 12 13 14 15
568
FTUS43 KGLD 191726
TAFGLD
TAF
KGLD 191726Z 1918/2018 33006KT 1/4SM FZFG VV002
     FM191900 33007KT P6SM SCT250
     FM200400 24005KT 4SM BR FEW007
     FM200700 26004KT 1/2SM FZFG VV002
     FM201200 27005KT 1SM BR SCT007
     FM201500 31005KT P6SM BKN050=

USA.gov is the U.S. government's official web portal to all federal, state and local government web resources and services.